sensor_id;sensor_type;location;lat;lon;timestamp;pressure;altitude;pressure_sealevel;temperature;humidity
40171;BME280;37650;52.790;18.268;2023-02-13T00:00:56;102388.77;;;4.32;100.00
40171;BME280;37650;52.790;18.268;2023-02-13T00:04:17;102383.05;;;4.33;100.00
40171;BME280;37650;52.790;18.268;2023-02-13T00:07:38;102383.73;;;4.32;100.00
40171;BME280;37650;52.790;18.268;2023-02-13T00:10:59;102377.77;;;4.30;100.00
40171;BME280;37650;52.790;18.268;2023-02-13T00:14:20;102371.14;;;4.28;100.00
40171;BME280;37650;52.790;18.268;2023-02-13T00:17:41;102366.63;;;4.29;100.00
40171;BME280;37650;52.790;18.268;2023-02-13T00:21:12;102361.60;;;4.29;100.00
40171;BME280;37650;52.790;18.268;2023-02-13T00:24:32;102361.27;;;4.30;100.00
40171;BME280;37650;52.790;18.268;2023-02-13T00:27:53;102361.76;;;4.29;100.00
40171;BME280;37650;52.790;18.268;2023-02-13T00:31:17;102357.92;;;4.27;100.00
40171;BME280;37650;52.790;18.268;2023-02-13T00:34:38;102355.49;;;4.28;100.00
40171;BME280;37650;52.790;18.268;2023-02-13T00:37:59;102351.85;;;4.28;100.00
40171;BME280;37650;52.790;18.268;2023-02-13T00:41:20;102348.64;;;4.32;100.00
40171;BME280;37650;52.790;18.268;2023-02-13T00:44:41;102344.80;;;4.31;100.00
40171;BME280;37650;52.790;18.268;2023-02-13T00:48:02;102347.35;;;4.29;100.00
40171;BME280;37650;52.790;18.268;2023-02-13T00:51:23;102345.59;;;4.28;100.00
40171;BME280;37650;52.790;18.268;2023-02-13T00:54:44;102345.61;;;4.29;100.00
40171;BME280;37650;52.790;18.268;2023-02-13T00:58:06;102344.24;;;4.30;100.00
40171;BME280;37650;52.790;18.268;2023-02-13T01:01:27;102342.88;;;4.31;100.00
40171;BME280;37650;52.790;18.268;2023-02-13T01:04:48;102339.38;;;4.30;100.00
40171;BME280;37650;52.790;18.268;2023-02-13T01:08:11;102343.53;;;4.29;100.00
40171;BME280;37650;52.790;18.268;2023-02-13T01:11:31;102345.77;;;4.29;100.00
40171;BME280;37650;52.790;18.268;2023-02-13T01:14:54;102346.12;;;4.28;100.00
40171;BME280;37650;52.790;18.268;2023-02-13T01:23:14;102337.61;;;4.28;100.00
40171;BME280;37650;52.790;18.268;2023-02-13T01:26:35;102331.52;;;4.27;100.00
40171;BME280;37650;52.790;18.268;2023-02-13T01:29:57;102332.39;;;4.28;100.00
40171;BME280;37650;52.790;18.268;2023-02-13T01:33:18;102331.70;;;4.29;100.00
40171;BME280;37650;52.790;18.268;2023-02-13T01:36:39;102333.28;;;4.29;100.00
40171;BME280;37650;52.790;18.268;2023-02-13T01:40:00;102330.71;;;4.31;100.00
40171;BME280;37650;52.790;18.268;2023-02-13T01:43:21;102328.77;;;4.29;100.00
40171;BME280;37650;52.790;18.268;2023-02-13T01:46:45;102332.23;;;4.28;100.00
40171;BME280;37650;52.790;18.268;2023-02-13T01:50:10;102329.08;;;4.27;100.00
40171;BME280;37650;52.790;18.268;2023-02-13T01:57:42;102322.48;;;4.28;100.00
40171;BME280;37650;52.790;18.268;2023-02-13T02:01:07;102320.94;;;4.28;100.00
40171;BME280;37650;52.790;18.268;2023-02-13T02:04:33;102321.74;;;4.25;100.00
40171;BME280;37650;52.790;18.268;2023-02-13T02:08:01;102325.02;;;4.24;100.00
40171;BME280;37650;52.790;18.268;2023-02-13T02:11:33;102321.61;;;4.27;100.00
40171;BME280;37650;52.790;18.268;2023-02-13T02:14:57;102315.23;;;4.30;100.00
40171;BME280;37650;52.790;18.268;2023-02-13T02:18:23;102310.90;;;4.31;100.00
40171;BME280;37650;52.790;18.268;2023-02-13T02:22:12;102311.44;;;4.31;100.00
40171;BME280;37650;52.790;18.268;2023-02-13T02:29:20;102313.73;;;4.34;100.00
40171;BME280;37650;52.790;18.268;2023-02-13T02:52:01;102329.85;;;4.49;100.00
40171;BME280;37650;52.790;18.268;2023-02-13T02:55:35;102328.67;;;4.51;100.00
40171;BME280;37650;52.790;18.268;2023-02-13T02:59:06;102326.43;;;4.52;100.00
40171;BME280;37650;52.790;18.268;2023-02-13T03:02:47;102318.73;;;4.50;100.00
40171;BME280;37650;52.790;18.268;2023-02-13T03:06:53;102319.96;;;4.50;100.00
40171;BME280;37650;52.790;18.268;2023-02-13T03:10:26;102324.50;;;4.51;100.00
40171;BME280;37650;52.790;18.268;2023-02-13T03:14:08;102319.34;;;4.54;100.00
40171;BME280;37650;52.790;18.268;2023-02-13T03:17:31;102315.87;;;4.54;100.00
40171;BME280;37650;52.790;18.268;2023-02-13T03:21:16;102319.98;;;4.51;100.00
40171;BME280;37650;52.790;18.268;2023-02-13T03:29:25;102323.67;;;4.53;100.00
40171;BME280;37650;52.790;18.268;2023-02-13T03:37:01;102318.60;;;4.51;100.00
40171;BME280;37650;52.790;18.268;2023-02-13T03:40:49;102319.27;;;4.50;100.00
40171;BME280;37650;52.790;18.268;2023-02-13T03:44:48;102328.16;;;4.51;100.00
40171;BME280;37650;52.790;18.268;2023-02-13T03:48:33;102327.70;;;4.54;100.00
40171;BME280;37650;52.790;18.268;2023-02-13T03:52:53;102330.64;;;4.54;100.00
40171;BME280;37650;52.790;18.268;2023-02-13T03:56:17;102331.85;;;4.53;100.00
40171;BME280;37650;52.790;18.268;2023-02-13T04:00:00;102338.80;;;4.54;100.00
40171;BME280;37650;52.790;18.268;2023-02-13T04:03:44;102338.66;;;4.56;100.00
40171;BME280;37650;52.790;18.268;2023-02-13T04:07:11;102338.69;;;4.56;100.00
40171;BME280;37650;52.790;18.268;2023-02-13T04:10:56;102343.00;;;4.55;100.00
40171;BME280;37650;52.790;18.268;2023-02-13T04:14:24;102348.86;;;4.52;100.00
40171;BME280;37650;52.790;18.268;2023-02-13T04:18:02;102347.96;;;4.51;100.00
40171;BME280;37650;52.790;18.268;2023-02-13T04:21:44;102352.30;;;4.51;100.00
40171;BME280;37650;52.790;18.268;2023-02-13T04:25:09;102347.75;;;4.50;100.00
40171;BME280;37650;52.790;18.268;2023-02-13T04:28:30;102351.23;;;4.49;100.00
40171;BME280;37650;52.790;18.268;2023-02-13T04:31:51;102348.44;;;4.49;100.00
40171;BME280;37650;52.790;18.268;2023-02-13T04:35:12;102346.66;;;4.46;100.00
40171;BME280;37650;52.790;18.268;2023-02-13T04:38:34;102346.77;;;4.43;100.00
40171;BME280;37650;52.790;18.268;2023-02-13T04:41:55;102348.10;;;4.40;100.00
40171;BME280;37650;52.790;18.268;2023-02-13T04:45:16;102347.92;;;4.40;100.00
40171;BME280;37650;52.790;18.268;2023-02-13T04:48:37;102349.84;;;4.40;100.00
40171;BME280;37650;52.790;18.268;2023-02-13T04:51:58;102353.89;;;4.42;100.00
40171;BME280;37650;52.790;18.268;2023-02-13T04:55:19;102351.26;;;4.41;100.00
40171;BME280;37650;52.790;18.268;2023-02-13T04:58:40;102349.29;;;4.39;100.00
40171;BME280;37650;52.790;18.268;2023-02-13T05:02:01;102352.70;;;4.36;100.00
40171;BME280;37650;52.790;18.268;2023-02-13T05:05:22;102350.93;;;4.34;100.00
40171;BME280;37650;52.790;18.268;2023-02-13T05:08:43;102349.39;;;4.35;100.00
40171;BME280;37650;52.790;18.268;2023-02-13T05:12:04;102349.09;;;4.37;100.00
40171;BME280;37650;52.790;18.268;2023-02-13T05:15:25;102347.37;;;4.39;100.00
40171;BME280;37650;52.790;18.268;2023-02-13T05:18:46;102342.33;;;4.38;100.00
40171;BME280;37650;52.790;18.268;2023-02-13T05:22:08;102351.16;;;4.37;100.00
40171;BME280;37650;52.790;18.268;2023-02-13T05:25:48;102347.98;;;4.34;100.00
40171;BME280;37650;52.790;18.268;2023-02-13T05:29:09;102353.20;;;4.35;100.00
40171;BME280;37650;52.790;18.268;2023-02-13T05:32:39;102349.57;;;4.35;100.00
40171;BME280;37650;52.790;18.268;2023-02-13T05:36:03;102349.08;;;4.37;100.00
40171;BME280;37650;52.790;18.268;2023-02-13T05:39:24;102353.77;;;4.36;100.00
40171;BME280;37650;52.790;18.268;2023-02-13T05:42:44;102349.92;;;4.36;100.00
40171;BME280;37650;52.790;18.268;2023-02-13T05:46:07;102346.06;;;4.34;100.00
40171;BME280;37650;52.790;18.268;2023-02-13T05:49:28;102347.60;;;4.33;100.00
40171;BME280;37650;52.790;18.268;2023-02-13T05:52:50;102344.31;;;4.34;100.00
40171;BME280;37650;52.790;18.268;2023-02-13T05:56:10;102347.48;;;4.36;100.00
40171;BME280;37650;52.790;18.268;2023-02-13T05:59:31;102344.61;;;4.40;100.00
40171;BME280;37650;52.790;18.268;2023-02-13T06:02:53;102348.63;;;4.40;100.00
40171;BME280;37650;52.790;18.268;2023-02-13T06:06:15;102357.45;;;4.38;100.00
40171;BME280;37650;52.790;18.268;2023-02-13T06:09:37;102363.14;;;4.36;100.00
40171;BME280;37650;52.790;18.268;2023-02-13T06:12:58;102360.19;;;4.36;100.00
40171;BME280;37650;52.790;18.268;2023-02-13T06:16:19;102364.19;;;4.37;100.00
40171;BME280;37650;52.790;18.268;2023-02-13T06:19:40;102364.90;;;4.37;100.00
40171;BME280;37650;52.790;18.268;2023-02-13T06:23:18;102365.44;;;4.39;100.00
40171;BME280;37650;52.790;18.268;2023-02-13T06:26:39;102366.86;;;4.40;100.00
40171;BME280;37650;52.790;18.268;2023-02-13T06:29:59;102365.64;;;4.40;100.00
40171;BME280;37650;52.790;18.268;2023-02-13T06:33:21;102357.08;;;4.38;100.00
40171;BME280;37650;52.790;18.268;2023-02-13T06:36:42;102357.57;;;4.36;100.00
40171;BME280;37650;52.790;18.268;2023-02-13T06:40:02;102362.75;;;4.34;100.00
40171;BME280;37650;52.790;18.268;2023-02-13T06:43:23;102363.27;;;4.35;100.00
40171;BME280;37650;52.790;18.268;2023-02-13T06:46:44;102371.84;;;4.36;100.00
40171;BME280;37650;52.790;18.268;2023-02-13T06:50:06;102374.81;;;4.39;100.00
40171;BME280;37650;52.790;18.268;2023-02-13T06:53:27;102370.54;;;4.41;100.00
40171;BME280;37650;52.790;18.268;2023-02-13T06:56:48;102380.97;;;4.41;100.00
40171;BME280;37650;52.790;18.268;2023-02-13T07:00:10;102377.83;;;4.41;100.00
40171;BME280;37650;52.790;18.268;2023-02-13T07:03:33;102370.66;;;4.39;100.00
40171;BME280;37650;52.790;18.268;2023-02-13T07:06:56;102369.79;;;4.39;100.00
40171;BME280;37650;52.790;18.268;2023-02-13T07:10:17;102372.95;;;4.40;100.00
40171;BME280;37650;52.790;18.268;2023-02-13T07:13:41;102369.36;;;4.42;100.00
40171;BME280;37650;52.790;18.268;2023-02-13T07:17:02;102372.68;;;4.44;100.00
40171;BME280;37650;52.790;18.268;2023-02-13T07:20:24;102374.59;;;4.44;100.00
40171;BME280;37650;52.790;18.268;2023-02-13T07:23:45;102379.25;;;4.42;100.00
40171;BME280;37650;52.790;18.268;2023-02-13T07:27:06;102379.79;;;4.43;100.00
40171;BME280;37650;52.790;18.268;2023-02-13T07:30:30;102377.72;;;4.44;100.00
40171;BME280;37650;52.790;18.268;2023-02-13T07:33:50;102376.73;;;4.47;100.00
40171;BME280;37650;52.790;18.268;2023-02-13T07:37:11;102378.34;;;4.49;100.00
40171;BME280;37650;52.790;18.268;2023-02-13T07:40:32;102379.20;;;4.49;100.00
40171;BME280;37650;52.790;18.268;2023-02-13T07:43:54;102376.60;;;4.48;100.00
40171;BME280;37650;52.790;18.268;2023-02-13T07:47:15;102375.38;;;4.49;100.00
40171;BME280;37650;52.790;18.268;2023-02-13T07:50:36;102371.64;;;4.53;100.00
40171;BME280;37650;52.790;18.268;2023-02-13T07:53:57;102366.98;;;4.55;100.00
40171;BME280;37650;52.790;18.268;2023-02-13T07:57:18;102363.85;;;4.55;100.00
40171;BME280;37650;52.790;18.268;2023-02-13T08:00:39;102365.59;;;4.55;100.00
40171;BME280;37650;52.790;18.268;2023-02-13T08:04:00;102366.80;;;4.54;100.00
40171;BME280;37650;52.790;18.268;2023-02-13T08:07:44;102361.27;;;4.57;100.00
40171;BME280;37650;52.790;18.268;2023-02-13T08:11:12;102366.70;;;4.59;100.00
40171;BME280;37650;52.790;18.268;2023-02-13T08:15:00;102361.73;;;4.62;100.00
40171;BME280;37650;52.790;18.268;2023-02-13T08:18:21;102355.14;;;4.63;100.00
40171;BME280;37650;52.790;18.268;2023-02-13T08:21:42;102346.83;;;4.64;100.00
40171;BME280;37650;52.790;18.268;2023-02-13T08:25:04;102345.46;;;4.66;100.00
40171;BME280;37650;52.790;18.268;2023-02-13T08:28:25;102350.56;;;4.69;100.00
40171;BME280;37650;52.790;18.268;2023-02-13T08:31:46;102351.63;;;4.70;100.00
40171;BME280;37650;52.790;18.268;2023-02-13T08:35:07;102352.68;;;4.72;100.00
40171;BME280;37650;52.790;18.268;2023-02-13T08:38:28;102347.46;;;4.72;100.00
40171;BME280;37650;52.790;18.268;2023-02-13T08:41:49;102341.11;;;4.76;100.00
40171;BME280;37650;52.790;18.268;2023-02-13T08:45:10;102338.94;;;4.80;100.00
40171;BME280;37650;52.790;18.268;2023-02-13T08:48:31;102342.13;;;4.84;100.00
40171;BME280;37650;52.790;18.268;2023-02-13T08:51:52;102341.16;;;4.88;100.00
40171;BME280;37650;52.790;18.268;2023-02-13T08:55:12;102334.23;;;4.89;100.00
40171;BME280;37650;52.790;18.268;2023-02-13T08:58:33;102328.54;;;4.92;100.00
40171;BME280;37650;52.790;18.268;2023-02-13T09:01:55;102330.69;;;4.95;100.00
40171;BME280;37650;52.790;18.268;2023-02-13T09:05:16;102327.92;;;4.97;100.00
40171;BME280;37650;52.790;18.268;2023-02-13T09:08:37;102325.67;;;4.98;100.00
40171;BME280;37650;52.790;18.268;2023-02-13T09:11:58;102325.00;;;4.99;100.00
40171;BME280;37650;52.790;18.268;2023-02-13T09:15:20;102322.77;;;5.00;100.00
40171;BME280;37650;52.790;18.268;2023-02-13T09:18:41;102316.92;;;5.04;100.00
40171;BME280;37650;52.790;18.268;2023-02-13T09:22:03;102320.45;;;5.07;100.00
40171;BME280;37650;52.790;18.268;2023-02-13T09:25:25;102324.46;;;5.09;100.00
40171;BME280;37650;52.790;18.268;2023-02-13T09:28:46;102331.27;;;5.09;100.00
40171;BME280;37650;52.790;18.268;2023-02-13T09:32:07;102324.52;;;5.11;100.00
40171;BME280;37650;52.790;18.268;2023-02-13T09:35:28;102324.42;;;5.16;100.00
40171;BME280;37650;52.790;18.268;2023-02-13T09:38:54;102327.23;;;5.18;100.00
40171;BME280;37650;52.790;18.268;2023-02-13T09:42:28;102329.84;;;5.17;100.00
40171;BME280;37650;52.790;18.268;2023-02-13T09:45:52;102330.41;;;5.21;100.00
40171;BME280;37650;52.790;18.268;2023-02-13T09:49:18;102333.79;;;5.26;100.00
40171;BME280;37650;52.790;18.268;2023-02-13T09:52:42;102342.70;;;5.27;100.00
40171;BME280;37650;52.790;18.268;2023-02-13T09:56:10;102345.50;;;5.29;100.00
40171;BME280;37650;52.790;18.268;2023-02-13T10:03:27;102338.09;;;5.33;100.00
40171;BME280;37650;52.790;18.268;2023-02-13T10:07:05;102330.50;;;5.38;100.00
40171;BME280;37650;52.790;18.268;2023-02-13T10:10:33;102327.23;;;5.40;100.00
40171;BME280;37650;52.790;18.268;2023-02-13T10:14:14;102325.02;;;5.44;100.00
40171;BME280;37650;52.790;18.268;2023-02-13T10:17:42;102329.75;;;5.46;100.00
40171;BME280;37650;52.790;18.268;2023-02-13T10:21:05;102329.13;;;5.50;100.00
40171;BME280;37650;52.790;18.268;2023-02-13T10:24:32;102325.86;;;5.54;100.00
40171;BME280;37650;52.790;18.268;2023-02-13T10:28:06;102319.85;;;5.60;100.00
40171;BME280;37650;52.790;18.268;2023-02-13T10:31:31;102320.61;;;5.76;100.00
40171;BME280;37650;52.790;18.268;2023-02-13T10:34:54;102319.16;;;6.10;100.00
40171;BME280;37650;52.790;18.268;2023-02-13T10:38:19;102320.34;;;6.54;100.00
40171;BME280;37650;52.790;18.268;2023-02-13T10:41:54;102329.73;;;7.06;100.00
40171;BME280;37650;52.790;18.268;2023-02-13T10:45:31;102330.19;;;7.42;100.00
40171;BME280;37650;52.790;18.268;2023-02-13T10:56:23;102314.77;;;7.63;100.00
40171;BME280;37650;52.790;18.268;2023-02-13T11:03:25;102313.41;;;7.14;100.00
40171;BME280;37650;52.790;18.268;2023-02-13T11:06:59;102315.14;;;6.93;100.00
40171;BME280;37650;52.790;18.268;2023-02-13T11:10:22;102321.46;;;6.78;100.00
40171;BME280;37650;52.790;18.268;2023-02-13T11:13:43;102321.19;;;6.67;100.00
40171;BME280;37650;52.790;18.268;2023-02-13T11:17:06;102320.20;;;6.57;100.00
40171;BME280;37650;52.790;18.268;2023-02-13T11:20:42;102316.83;;;6.50;100.00
40171;BME280;37650;52.790;18.268;2023-02-13T11:24:17;102310.91;;;6.51;100.00
40171;BME280;37650;52.790;18.268;2023-02-13T11:27:39;102306.70;;;6.66;100.00
40171;BME280;37650;52.790;18.268;2023-02-13T11:31:11;102302.04;;;6.91;100.00
40171;BME280;37650;52.790;18.268;2023-02-13T11:34:33;102303.05;;;7.09;100.00
40171;BME280;37650;52.790;18.268;2023-02-13T11:38:19;102303.09;;;7.13;100.00
40171;BME280;37650;52.790;18.268;2023-02-13T11:41:42;102301.95;;;7.23;100.00
40171;BME280;37650;52.790;18.268;2023-02-13T11:45:06;102291.48;;;7.25;100.00
40171;BME280;37650;52.790;18.268;2023-02-13T11:48:27;102293.53;;;7.20;100.00
40171;BME280;37650;52.790;18.268;2023-02-13T11:51:54;102296.21;;;7.03;100.00
40171;BME280;37650;52.790;18.268;2023-02-13T11:56:28;102294.48;;;6.85;100.00
40171;BME280;37650;52.790;18.268;2023-02-13T20:27:09;102313.42;;;3.52;100.00
40171;BME280;37650;52.790;18.268;2023-02-13T20:30:33;102314.43;;;3.50;100.00
40171;BME280;37650;52.790;18.268;2023-02-13T20:33:57;102318.70;;;3.47;100.00
40171;BME280;37650;52.790;18.268;2023-02-13T20:37:22;102321.57;;;3.44;100.00
40171;BME280;37650;52.790;18.268;2023-02-13T20:40:46;102330.30;;;3.39;100.00
40171;BME280;37650;52.790;18.268;2023-02-13T20:44:10;102330.67;;;3.32;100.00
40171;BME280;37650;52.790;18.268;2023-02-13T20:47:34;102325.99;;;3.26;100.00
40171;BME280;37650;52.790;18.268;2023-02-13T20:50:57;102328.49;;;3.21;100.00
40171;BME280;37650;52.790;18.268;2023-02-13T20:54:21;102329.69;;;3.20;100.00
40171;BME280;37650;52.790;18.268;2023-02-13T20:57:43;102330.98;;;3.17;100.00
40171;BME280;37650;52.790;18.268;2023-02-13T21:04:34;102331.52;;;3.10;100.00
40171;BME280;37650;52.790;18.268;2023-02-13T21:07:56;102334.34;;;3.05;100.00
40171;BME280;37650;52.790;18.268;2023-02-13T21:11:19;102337.91;;;3.02;100.00
40171;BME280;37650;52.790;18.268;2023-02-13T21:14:41;102339.10;;;3.02;100.00
40171;BME280;37650;52.790;18.268;2023-02-13T21:18:04;102337.83;;;2.99;100.00
40171;BME280;37650;52.790;18.268;2023-02-13T21:21:29;102333.80;;;2.97;100.00
40171;BME280;37650;52.790;18.268;2023-02-13T21:24:55;102330.05;;;2.93;100.00
40171;BME280;37650;52.790;18.268;2023-02-13T21:28:17;102321.30;;;2.90;100.00
40171;BME280;37650;52.790;18.268;2023-02-13T21:31:43;102324.73;;;2.88;100.00
40171;BME280;37650;52.790;18.268;2023-02-13T21:35:07;102329.56;;;2.87;100.00
40171;BME280;37650;52.790;18.268;2023-02-13T21:38:29;102325.55;;;2.86;100.00
40171;BME280;37650;52.790;18.268;2023-02-13T21:41:51;102328.80;;;2.85;100.00
40171;BME280;37650;52.790;18.268;2023-02-13T21:45:13;102326.45;;;2.81;100.00
40171;BME280;37650;52.790;18.268;2023-02-13T21:48:34;102325.75;;;2.81;100.00
40171;BME280;37650;52.790;18.268;2023-02-13T21:51:55;102321.75;;;2.80;100.00
40171;BME280;37650;52.790;18.268;2023-02-13T21:55:15;102324.85;;;2.79;100.00
40171;BME280;37650;52.790;18.268;2023-02-13T21:58:38;102324.62;;;2.77;100.00
40171;BME280;37650;52.790;18.268;2023-02-13T22:02:01;102319.66;;;2.74;100.00
40171;BME280;37650;52.790;18.268;2023-02-13T22:05:21;102320.68;;;2.72;100.00
40171;BME280;37650;52.790;18.268;2023-02-13T22:08:43;102317.52;;;2.71;100.00
40171;BME280;37650;52.790;18.268;2023-02-13T22:12:04;102323.60;;;2.71;100.00
40171;BME280;37650;52.790;18.268;2023-02-13T22:15:24;102323.48;;;2.67;100.00
40171;BME280;37650;52.790;18.268;2023-02-13T22:18:45;102321.34;;;2.64;100.00
40171;BME280;37650;52.790;18.268;2023-02-13T22:22:08;102323.38;;;2.63;100.00
40171;BME280;37650;52.790;18.268;2023-02-13T22:25:29;102319.69;;;2.61;100.00
40171;BME280;37650;52.790;18.268;2023-02-13T22:28:50;102327.42;;;2.59;100.00
40171;BME280;37650;52.790;18.268;2023-02-13T22:32:11;102335.71;;;2.58;100.00
40171;BME280;37650;52.790;18.268;2023-02-13T22:35:37;102331.80;;;2.54;100.00
40171;BME280;37650;52.790;18.268;2023-02-13T22:38:58;102336.37;;;2.50;100.00
40171;BME280;37650;52.790;18.268;2023-02-13T22:42:20;102333.52;;;2.47;100.00
40171;BME280;37650;52.790;18.268;2023-02-13T22:45:41;102334.86;;;2.45;100.00
40171;BME280;37650;52.790;18.268;2023-02-13T22:49:02;102331.30;;;2.42;100.00
40171;BME280;37650;52.790;18.268;2023-02-13T22:52:23;102334.31;;;2.38;100.00
40171;BME280;37650;52.790;18.268;2023-02-13T22:55:44;102331.46;;;2.35;100.00
40171;BME280;37650;52.790;18.268;2023-02-13T22:59:05;102333.86;;;2.34;100.00
40171;BME280;37650;52.790;18.268;2023-02-13T23:02:26;102337.30;;;2.33;100.00
40171;BME280;37650;52.790;18.268;2023-02-13T23:05:48;102340.30;;;2.29;100.00
40171;BME280;37650;52.790;18.268;2023-02-13T23:09:10;102336.70;;;2.24;100.00
40171;BME280;37650;52.790;18.268;2023-02-13T23:12:31;102338.48;;;2.20;100.00
40171;BME280;37650;52.790;18.268;2023-02-13T23:15:59;102342.05;;;2.17;100.00
40171;BME280;37650;52.790;18.268;2023-02-13T23:19:20;102339.91;;;2.16;100.00
40171;BME280;37650;52.790;18.268;2023-02-13T23:22:41;102340.86;;;2.12;100.00
40171;BME280;37650;52.790;18.268;2023-02-13T23:26:06;102340.57;;;2.07;100.00
40171;BME280;37650;52.790;18.268;2023-02-13T23:29:27;102338.55;;;2.04;100.00
40171;BME280;37650;52.790;18.268;2023-02-13T23:32:48;102332.80;;;2.03;100.00
40171;BME280;37650;52.790;18.268;2023-02-13T23:36:09;102333.13;;;2.01;100.00
40171;BME280;37650;52.790;18.268;2023-02-13T23:39:30;102333.52;;;1.97;100.00
40171;BME280;37650;52.790;18.268;2023-02-13T23:42:51;102334.75;;;1.92;100.00
40171;BME280;37650;52.790;18.268;2023-02-13T23:46:12;102335.16;;;1.89;100.00
40171;BME280;37650;52.790;18.268;2023-02-13T23:49:33;102329.57;;;1.87;100.00
40171;BME280;37650;52.790;18.268;2023-02-13T23:52:57;102329.70;;;1.85;100.00
40171;BME280;37650;52.790;18.268;2023-02-13T23:56:19;102326.14;;;1.82;100.00
40171;BME280;37650;52.790;18.268;2023-02-13T23:59:39;102326.50;;;1.77;100.00
